Terminal Aerodrome Forecast
Issued by NWS

Home | Current Version | Previous Version | Text Only | Print | Product List | Glossary On
Versions: 1 2 3 4 5 6 7 8 9 10 11 12
000
FTUS45 KRIW 251100
TAFCPR
TAF
KCPR 251127Z 2512/2612 36011KT 1 1/2SM -SN OVC014
     FM251500 02010G20KT 1SM -SN SCT003 OVC008
     FM260700 03008KT 3SM -SN SCT008 OVC015=

USA.gov is the U.S. government's official web portal to all federal, state and local government web resources and services.